sensor_id;sensor_type;location;lat;lon;timestamp;P1;durP1;ratioP1;P2;durP2;ratioP2
14125;SDS011;7141;49.484;11.242;2022-07-29T00:02:08;6.53;;;2.03;;
14125;SDS011;7141;49.484;11.242;2022-07-29T00:04:35;5.60;;;2.20;;
14125;SDS011;7141;49.484;11.242;2022-07-29T00:07:01;4.13;;;2.00;;
14125;SDS011;7141;49.484;11.242;2022-07-29T00:09:27;5.50;;;2.53;;
14125;SDS011;7141;49.484;11.242;2022-07-29T00:11:53;6.53;;;1.90;;
14125;SDS011;7141;49.484;11.242;2022-07-29T00:14:20;3.50;;;1.83;;
14125;SDS011;7141;49.484;11.242;2022-07-29T00:16:46;3.23;;;1.80;;
14125;SDS011;7141;49.484;11.242;2022-07-29T00:19:12;3.30;;;2.10;;
14125;SDS011;7141;49.484;11.242;2022-07-29T00:21:38;6.40;;;2.20;;
14125;SDS011;7141;49.484;11.242;2022-07-29T00:24:04;2.17;;;1.80;;
14125;SDS011;7141;49.484;11.242;2022-07-29T00:26:30;3.33;;;2.10;;
14125;SDS011;7141;49.484;11.242;2022-07-29T00:29:00;3.40;;;2.10;;
14125;SDS011;7141;49.484;11.242;2022-07-29T00:31:26;3.27;;;2.00;;
14125;SDS011;7141;49.484;11.242;2022-07-29T00:33:52;4.43;;;1.97;;
14125;SDS011;7141;49.484;11.242;2022-07-29T00:36:18;2.27;;;1.70;;
14125;SDS011;7141;49.484;11.242;2022-07-29T00:38:46;5.80;;;2.10;;
14125;SDS011;7141;49.484;11.242;2022-07-29T00:41:12;6.17;;;2.27;;
14125;SDS011;7141;49.484;11.242;2022-07-29T00:43:38;4.97;;;2.10;;
14125;SDS011;7141;49.484;11.242;2022-07-29T00:46:04;4.53;;;2.00;;
14125;SDS011;7141;49.484;11.242;2022-07-29T00:48:30;3.70;;;1.93;;
14125;SDS011;7141;49.484;11.242;2022-07-29T00:50:57;7.97;;;2.23;;
14125;SDS011;7141;49.484;11.242;2022-07-29T00:53:23;5.73;;;2.07;;
14125;SDS011;7141;49.484;11.242;2022-07-29T00:55:50;3.00;;;1.83;;
14125;SDS011;7141;49.484;11.242;2022-07-29T00:58:16;5.90;;;2.30;;
14125;SDS011;7141;49.484;11.242;2022-07-29T01:00:42;3.23;;;1.93;;
14125;SDS011;7141;49.484;11.242;2022-07-29T01:03:09;5.07;;;1.80;;
14125;SDS011;7141;49.484;11.242;2022-07-29T01:05:35;4.80;;;2.10;;
14125;SDS011;7141;49.484;11.242;2022-07-29T01:08:01;6.20;;;2.20;;
14125;SDS011;7141;49.484;11.242;2022-07-29T01:10:28;3.63;;;2.10;;
14125;SDS011;7141;49.484;11.242;2022-07-29T01:12:55;4.33;;;1.97;;
14125;SDS011;7141;49.484;11.242;2022-07-29T01:15:22;4.83;;;2.00;;
14125;SDS011;7141;49.484;11.242;2022-07-29T01:20:24;5.80;;;2.00;;
14125;SDS011;7141;49.484;11.242;2022-07-29T01:30:43;3.93;;;1.90;;
14125;SDS011;7141;49.484;11.242;2022-07-29T01:33:11;6.63;;;2.20;;
14125;SDS011;7141;49.484;11.242;2022-07-29T01:35:58;7.07;;;2.40;;
14125;SDS011;7141;49.484;11.242;2022-07-29T01:38:24;7.03;;;2.07;;
14125;SDS011;7141;49.484;11.242;2022-07-29T01:41:11;3.03;;;2.03;;
14125;SDS011;7141;49.484;11.242;2022-07-29T01:43:41;2.60;;;1.73;;
14125;SDS011;7141;49.484;11.242;2022-07-29T01:46:14;4.50;;;2.17;;
14125;SDS011;7141;49.484;11.242;2022-07-29T01:48:53;5.53;;;2.20;;
14125;SDS011;7141;49.484;11.242;2022-07-29T01:51:21;2.40;;;1.87;;
14125;SDS011;7141;49.484;11.242;2022-07-29T01:53:57;2.60;;;1.83;;
14125;SDS011;7141;49.484;11.242;2022-07-29T01:56:27;2.90;;;1.80;;
14125;SDS011;7141;49.484;11.242;2022-07-29T01:58:57;3.23;;;1.70;;
14125;SDS011;7141;49.484;11.242;2022-07-29T02:01:24;5.10;;;1.93;;
14125;SDS011;7141;49.484;11.242;2022-07-29T02:03:52;3.00;;;1.90;;
14125;SDS011;7141;49.484;11.242;2022-07-29T02:06:19;7.13;;;2.33;;
14125;SDS011;7141;49.484;11.242;2022-07-29T02:08:46;4.70;;;2.17;;
14125;SDS011;7141;49.484;11.242;2022-07-29T02:11:14;6.60;;;2.33;;
14125;SDS011;7141;49.484;11.242;2022-07-29T02:13:40;6.07;;;2.07;;
14125;SDS011;7141;49.484;11.242;2022-07-29T02:16:06;5.63;;;2.20;;
14125;SDS011;7141;49.484;11.242;2022-07-29T02:18:33;5.67;;;2.00;;
14125;SDS011;7141;49.484;11.242;2022-07-29T02:21:01;4.40;;;2.00;;
14125;SDS011;7141;49.484;11.242;2022-07-29T02:23:28;3.27;;;2.23;;
14125;SDS011;7141;49.484;11.242;2022-07-29T02:25:56;2.33;;;1.90;;
14125;SDS011;7141;49.484;11.242;2022-07-29T02:28:23;4.47;;;2.13;;
14125;SDS011;7141;49.484;11.242;2022-07-29T02:30:50;4.03;;;2.17;;
14125;SDS011;7141;49.484;11.242;2022-07-29T02:33:17;6.17;;;2.30;;
14125;SDS011;7141;49.484;11.242;2022-07-29T02:35:44;2.43;;;2.00;;
14125;SDS011;7141;49.484;11.242;2022-07-29T02:38:12;6.50;;;2.20;;
14125;SDS011;7141;49.484;11.242;2022-07-29T02:40:57;3.00;;;1.90;;
14125;SDS011;7141;49.484;11.242;2022-07-29T02:43:24;2.73;;;1.90;;
14125;SDS011;7141;49.484;11.242;2022-07-29T02:45:51;6.37;;;2.00;;
14125;SDS011;7141;49.484;11.242;2022-07-29T02:48:18;8.87;;;2.27;;
14125;SDS011;7141;49.484;11.242;2022-07-29T02:50:49;2.97;;;1.90;;
14125;SDS011;7141;49.484;11.242;2022-07-29T02:53:17;4.63;;;1.87;;
14125;SDS011;7141;49.484;11.242;2022-07-29T02:55:57;5.70;;;2.20;;
14125;SDS011;7141;49.484;11.242;2022-07-29T02:58:29;3.97;;;2.30;;
14125;SDS011;7141;49.484;11.242;2022-07-29T03:00:56;3.33;;;2.10;;
14125;SDS011;7141;49.484;11.242;2022-07-29T03:03:23;4.47;;;2.50;;
14125;SDS011;7141;49.484;11.242;2022-07-29T03:05:53;3.37;;;2.20;;
14125;SDS011;7141;49.484;11.242;2022-07-29T03:08:20;6.73;;;2.47;;
14125;SDS011;7141;49.484;11.242;2022-07-29T03:10:46;2.73;;;1.90;;
14125;SDS011;7141;49.484;11.242;2022-07-29T03:13:13;2.63;;;1.80;;
14125;SDS011;7141;49.484;11.242;2022-07-29T03:15:42;3.80;;;1.80;;
14125;SDS011;7141;49.484;11.242;2022-07-29T03:18:08;3.10;;;1.93;;
14125;SDS011;7141;49.484;11.242;2022-07-29T03:20:35;6.03;;;2.17;;
14125;SDS011;7141;49.484;11.242;2022-07-29T03:23:02;4.00;;;2.23;;
14125;SDS011;7141;49.484;11.242;2022-07-29T03:25:29;4.07;;;1.93;;
14125;SDS011;7141;49.484;11.242;2022-07-29T03:27:55;4.40;;;2.17;;
14125;SDS011;7141;49.484;11.242;2022-07-29T03:30:21;4.10;;;2.10;;
14125;SDS011;7141;49.484;11.242;2022-07-29T03:32:48;4.30;;;1.80;;
14125;SDS011;7141;49.484;11.242;2022-07-29T03:35:14;3.67;;;1.83;;
14125;SDS011;7141;49.484;11.242;2022-07-29T03:37:41;7.90;;;2.20;;
14125;SDS011;7141;49.484;11.242;2022-07-29T03:40:07;2.63;;;1.60;;
14125;SDS011;7141;49.484;11.242;2022-07-29T03:42:35;6.33;;;1.90;;
14125;SDS011;7141;49.484;11.242;2022-07-29T03:45:03;5.43;;;2.00;;
14125;SDS011;7141;49.484;11.242;2022-07-29T03:47:31;3.57;;;2.03;;
14125;SDS011;7141;49.484;11.242;2022-07-29T03:49:59;3.37;;;2.10;;
14125;SDS011;7141;49.484;11.242;2022-07-29T03:52:25;4.47;;;1.80;;
14125;SDS011;7141;49.484;11.242;2022-07-29T03:54:52;7.47;;;2.17;;
14125;SDS011;7141;49.484;11.242;2022-07-29T03:57:18;4.93;;;2.40;;
14125;SDS011;7141;49.484;11.242;2022-07-29T03:59:46;3.83;;;2.00;;
14125;SDS011;7141;49.484;11.242;2022-07-29T04:02:12;4.77;;;1.90;;
14125;SDS011;7141;49.484;11.242;2022-07-29T04:04:38;3.90;;;1.90;;
14125;SDS011;7141;49.484;11.242;2022-07-29T04:07:04;3.30;;;2.13;;
14125;SDS011;7141;49.484;11.242;2022-07-29T04:09:30;3.63;;;2.03;;
14125;SDS011;7141;49.484;11.242;2022-07-29T04:11:56;2.67;;;1.83;;
14125;SDS011;7141;49.484;11.242;2022-07-29T04:14:22;3.40;;;1.93;;
14125;SDS011;7141;49.484;11.242;2022-07-29T04:16:48;5.37;;;2.03;;
14125;SDS011;7141;49.484;11.242;2022-07-29T04:19:14;5.40;;;2.37;;
14125;SDS011;7141;49.484;11.242;2022-07-29T04:21:40;4.33;;;2.23;;
14125;SDS011;7141;49.484;11.242;2022-07-29T04:24:07;5.17;;;1.97;;
14125;SDS011;7141;49.484;11.242;2022-07-29T04:26:34;4.07;;;2.10;;
14125;SDS011;7141;49.484;11.242;2022-07-29T04:29:00;3.50;;;1.90;;
14125;SDS011;7141;49.484;11.242;2022-07-29T04:31:26;3.53;;;1.90;;
14125;SDS011;7141;49.484;11.242;2022-07-29T04:33:52;4.03;;;2.07;;
14125;SDS011;7141;49.484;11.242;2022-07-29T04:36:18;5.17;;;2.10;;
14125;SDS011;7141;49.484;11.242;2022-07-29T04:38:44;5.90;;;2.40;;
14125;SDS011;7141;49.484;11.242;2022-07-29T04:41:10;5.37;;;1.97;;
14125;SDS011;7141;49.484;11.242;2022-07-29T04:43:36;5.27;;;2.10;;
14125;SDS011;7141;49.484;11.242;2022-07-29T04:46:03;3.23;;;2.10;;
14125;SDS011;7141;49.484;11.242;2022-07-29T04:48:29;8.87;;;2.07;;
14125;SDS011;7141;49.484;11.242;2022-07-29T04:50:55;6.17;;;2.23;;
14125;SDS011;7141;49.484;11.242;2022-07-29T04:53:22;5.87;;;2.30;;
14125;SDS011;7141;49.484;11.242;2022-07-29T04:55:48;4.00;;;1.93;;
14125;SDS011;7141;49.484;11.242;2022-07-29T04:58:14;3.77;;;2.00;;
14125;SDS011;7141;49.484;11.242;2022-07-29T05:00:40;8.27;;;2.13;;
14125;SDS011;7141;49.484;11.242;2022-07-29T05:03:06;4.40;;;2.33;;
14125;SDS011;7141;49.484;11.242;2022-07-29T05:05:32;3.27;;;1.83;;
14125;SDS011;7141;49.484;11.242;2022-07-29T05:07:58;5.67;;;2.07;;
14125;SDS011;7141;49.484;11.242;2022-07-29T05:10:24;6.57;;;2.43;;
14125;SDS011;7141;49.484;11.242;2022-07-29T05:12:50;6.97;;;1.77;;
14125;SDS011;7141;49.484;11.242;2022-07-29T05:15:17;2.30;;;2.00;;
14125;SDS011;7141;49.484;11.242;2022-07-29T05:17:43;2.93;;;2.00;;
14125;SDS011;7141;49.484;11.242;2022-07-29T05:20:09;4.37;;;1.80;;
14125;SDS011;7141;49.484;11.242;2022-07-29T05:22:35;2.93;;;2.17;;
14125;SDS011;7141;49.484;11.242;2022-07-29T05:25:01;4.50;;;2.30;;
14125;SDS011;7141;49.484;11.242;2022-07-29T05:27:27;4.63;;;1.97;;
14125;SDS011;7141;49.484;11.242;2022-07-29T05:29:54;6.47;;;2.50;;
14125;SDS011;7141;49.484;11.242;2022-07-29T05:32:20;2.47;;;1.67;;
14125;SDS011;7141;49.484;11.242;2022-07-29T05:34:45;2.70;;;1.90;;
14125;SDS011;7141;49.484;11.242;2022-07-29T05:37:11;3.50;;;1.97;;
14125;SDS011;7141;49.484;11.242;2022-07-29T05:39:38;4.20;;;1.73;;
14125;SDS011;7141;49.484;11.242;2022-07-29T05:42:07;4.17;;;2.00;;
14125;SDS011;7141;49.484;11.242;2022-07-29T05:44:36;5.63;;;1.93;;
14125;SDS011;7141;49.484;11.242;2022-07-29T05:47:02;2.20;;;2.00;;
14125;SDS011;7141;49.484;11.242;2022-07-29T05:49:27;4.70;;;2.00;;
14125;SDS011;7141;49.484;11.242;2022-07-29T05:51:53;5.53;;;2.27;;
14125;SDS011;7141;49.484;11.242;2022-07-29T05:54:19;5.73;;;2.17;;
14125;SDS011;7141;49.484;11.242;2022-07-29T05:56:45;3.47;;;2.00;;
14125;SDS011;7141;49.484;11.242;2022-07-29T05:59:11;4.57;;;2.20;;
14125;SDS011;7141;49.484;11.242;2022-07-29T06:01:37;5.93;;;2.17;;
14125;SDS011;7141;49.484;11.242;2022-07-29T06:04:05;2.67;;;1.80;;
14125;SDS011;7141;49.484;11.242;2022-07-29T06:06:31;2.43;;;1.90;;
14125;SDS011;7141;49.484;11.242;2022-07-29T06:08:58;7.17;;;2.00;;
14125;SDS011;7141;49.484;11.242;2022-07-29T06:11:24;4.20;;;2.20;;
14125;SDS011;7141;49.484;11.242;2022-07-29T06:13:50;3.70;;;2.10;;
14125;SDS011;7141;49.484;11.242;2022-07-29T06:16:16;7.67;;;2.00;;
14125;SDS011;7141;49.484;11.242;2022-07-29T06:18:42;5.90;;;2.03;;
14125;SDS011;7141;49.484;11.242;2022-07-29T06:21:08;4.60;;;2.00;;
14125;SDS011;7141;49.484;11.242;2022-07-29T06:23:35;3.10;;;2.40;;
14125;SDS011;7141;49.484;11.242;2022-07-29T06:26:01;2.90;;;2.10;;
14125;SDS011;7141;49.484;11.242;2022-07-29T06:28:27;4.03;;;1.90;;
14125;SDS011;7141;49.484;11.242;2022-07-29T06:30:53;5.43;;;2.37;;
14125;SDS011;7141;49.484;11.242;2022-07-29T06:33:19;3.47;;;2.37;;
14125;SDS011;7141;49.484;11.242;2022-07-29T06:35:45;3.73;;;2.17;;
14125;SDS011;7141;49.484;11.242;2022-07-29T06:38:12;4.77;;;2.60;;
14125;SDS011;7141;49.484;11.242;2022-07-29T06:40:45;4.77;;;2.10;;
14125;SDS011;7141;49.484;11.242;2022-07-29T06:43:32;4.60;;;2.07;;
14125;SDS011;7141;49.484;11.242;2022-07-29T06:46:03;4.00;;;2.53;;
14125;SDS011;7141;49.484;11.242;2022-07-29T06:48:29;4.43;;;2.43;;
14125;SDS011;7141;49.484;11.242;2022-07-29T06:50:55;3.93;;;2.37;;
14125;SDS011;7141;49.484;11.242;2022-07-29T06:53:21;7.20;;;2.10;;
14125;SDS011;7141;49.484;11.242;2022-07-29T06:55:47;3.80;;;2.27;;
14125;SDS011;7141;49.484;11.242;2022-07-29T06:58:13;6.90;;;2.87;;
14125;SDS011;7141;49.484;11.242;2022-07-29T07:00:41;3.97;;;2.70;;
14125;SDS011;7141;49.484;11.242;2022-07-29T07:03:07;7.83;;;2.57;;
14125;SDS011;7141;49.484;11.242;2022-07-29T07:05:33;5.13;;;2.40;;
14125;SDS011;7141;49.484;11.242;2022-07-29T07:07:59;3.53;;;2.50;;
14125;SDS011;7141;49.484;11.242;2022-07-29T07:10:25;7.40;;;2.50;;
14125;SDS011;7141;49.484;11.242;2022-07-29T07:12:51;6.93;;;2.30;;
14125;SDS011;7141;49.484;11.242;2022-07-29T07:15:17;3.60;;;2.63;;
14125;SDS011;7141;49.484;11.242;2022-07-29T07:17:46;4.07;;;2.33;;
14125;SDS011;7141;49.484;11.242;2022-07-29T07:20:13;3.83;;;2.53;;
14125;SDS011;7141;49.484;11.242;2022-07-29T07:22:39;2.90;;;2.40;;
14125;SDS011;7141;49.484;11.242;2022-07-29T07:25:05;5.27;;;2.80;;
14125;SDS011;7141;49.484;11.242;2022-07-29T07:27:31;3.77;;;2.93;;
14125;SDS011;7141;49.484;11.242;2022-07-29T07:29:57;4.80;;;2.47;;
14125;SDS011;7141;49.484;11.242;2022-07-29T07:32:23;7.70;;;2.60;;
14125;SDS011;7141;49.484;11.242;2022-07-29T07:34:49;3.27;;;2.80;;
14125;SDS011;7141;49.484;11.242;2022-07-29T07:37:15;4.63;;;2.70;;
14125;SDS011;7141;49.484;11.242;2022-07-29T07:39:42;4.73;;;2.23;;
14125;SDS011;7141;49.484;11.242;2022-07-29T07:42:08;6.40;;;2.60;;
14125;SDS011;7141;49.484;11.242;2022-07-29T07:44:36;4.27;;;2.60;;
14125;SDS011;7141;49.484;11.242;2022-07-29T07:47:02;5.20;;;2.50;;
14125;SDS011;7141;49.484;11.242;2022-07-29T07:49:28;6.37;;;2.50;;
14125;SDS011;7141;49.484;11.242;2022-07-29T07:51:54;3.90;;;2.40;;
14125;SDS011;7141;49.484;11.242;2022-07-29T07:54:20;3.63;;;2.40;;
14125;SDS011;7141;49.484;11.242;2022-07-29T07:56:46;10.67;;;2.80;;
14125;SDS011;7141;49.484;11.242;2022-07-29T07:59:14;7.53;;;2.90;;
14125;SDS011;7141;49.484;11.242;2022-07-29T08:01:40;4.57;;;2.30;;
14125;SDS011;7141;49.484;11.242;2022-07-29T08:04:07;6.17;;;4.63;;
14125;SDS011;7141;49.484;11.242;2022-07-29T08:06:33;6.60;;;3.97;;
14125;SDS011;7141;49.484;11.242;2022-07-29T08:09:05;4.77;;;3.23;;
14125;SDS011;7141;49.484;11.242;2022-07-29T08:11:32;5.47;;;2.60;;
14125;SDS011;7141;49.484;11.242;2022-07-29T08:13:58;4.87;;;2.97;;
14125;SDS011;7141;49.484;11.242;2022-07-29T08:16:26;4.13;;;2.53;;
14125;SDS011;7141;49.484;11.242;2022-07-29T08:18:52;3.30;;;2.60;;
14125;SDS011;7141;49.484;11.242;2022-07-29T08:21:22;5.63;;;3.07;;
14125;SDS011;7141;49.484;11.242;2022-07-29T08:23:48;6.57;;;2.90;;
14125;SDS011;7141;49.484;11.242;2022-07-29T08:26:15;4.57;;;2.53;;
14125;SDS011;7141;49.484;11.242;2022-07-29T08:28:42;5.07;;;3.17;;
14125;SDS011;7141;49.484;11.242;2022-07-29T08:31:10;3.10;;;2.60;;
14125;SDS011;7141;49.484;11.242;2022-07-29T08:33:36;5.17;;;2.90;;
14125;SDS011;7141;49.484;11.242;2022-07-29T08:36:02;5.67;;;2.70;;
14125;SDS011;7141;49.484;11.242;2022-07-29T08:38:28;7.70;;;3.23;;
14125;SDS011;7141;49.484;11.242;2022-07-29T08:40:54;8.23;;;2.70;;
14125;SDS011;7141;49.484;11.242;2022-07-29T08:43:20;4.80;;;2.70;;
14125;SDS011;7141;49.484;11.242;2022-07-29T08:45:47;5.40;;;2.77;;
14125;SDS011;7141;49.484;11.242;2022-07-29T08:48:21;5.50;;;2.83;;
14125;SDS011;7141;49.484;11.242;2022-07-29T08:50:48;4.47;;;2.67;;
14125;SDS011;7141;49.484;11.242;2022-07-29T08:53:15;5.07;;;2.73;;
14125;SDS011;7141;49.484;11.242;2022-07-29T08:55:45;4.53;;;2.90;;
14125;SDS011;7141;49.484;11.242;2022-07-29T08:58:11;6.97;;;2.80;;
14125;SDS011;7141;49.484;11.242;2022-07-29T09:00:41;3.87;;;2.87;;
14125;SDS011;7141;49.484;11.242;2022-07-29T09:03:07;4.70;;;3.10;;
14125;SDS011;7141;49.484;11.242;2022-07-29T09:05:34;4.33;;;2.70;;
14125;SDS011;7141;49.484;11.242;2022-07-29T09:08:00;4.00;;;3.20;;
14125;SDS011;7141;49.484;11.242;2022-07-29T09:10:27;4.77;;;2.73;;
14125;SDS011;7141;49.484;11.242;2022-07-29T09:12:56;8.03;;;3.30;;
14125;SDS011;7141;49.484;11.242;2022-07-29T09:15:22;6.30;;;3.00;;
14125;SDS011;7141;49.484;11.242;2022-07-29T09:17:49;6.37;;;3.30;;
14125;SDS011;7141;49.484;11.242;2022-07-29T09:20:19;5.03;;;3.15;;
14125;SDS011;7141;49.484;11.242;2022-07-29T09:22:45;5.05;;;3.33;;
14125;SDS011;7141;49.484;11.242;2022-07-29T09:25:14;5.15;;;3.13;;
14125;SDS011;7141;49.484;11.242;2022-07-29T09:27:40;5.80;;;3.20;;
14125;SDS011;7141;49.484;11.242;2022-07-29T09:32:32;4.32;;;3.78;;
14125;SDS011;7141;49.484;11.242;2022-07-29T09:35:21;5.35;;;3.40;;
14125;SDS011;7141;49.484;11.242;2022-07-29T09:37:47;5.50;;;3.67;;
14125;SDS011;7141;49.484;11.242;2022-07-29T09:40:15;6.40;;;3.35;;
14125;SDS011;7141;49.484;11.242;2022-07-29T09:42:41;8.38;;;3.33;;
14125;SDS011;7141;49.484;11.242;2022-07-29T09:45:08;4.47;;;3.17;;
14125;SDS011;7141;49.484;11.242;2022-07-29T09:47:44;4.22;;;3.28;;
14125;SDS011;7141;49.484;11.242;2022-07-29T09:50:11;6.38;;;3.33;;
14125;SDS011;7141;49.484;11.242;2022-07-29T09:52:50;4.25;;;2.90;;
14125;SDS011;7141;49.484;11.242;2022-07-29T09:55:17;3.50;;;3.13;;
14125;SDS011;7141;49.484;11.242;2022-07-29T09:57:43;6.30;;;3.50;;
14125;SDS011;7141;49.484;11.242;2022-07-29T10:00:11;5.38;;;3.10;;
14125;SDS011;7141;49.484;11.242;2022-07-29T10:02:38;6.57;;;3.40;;
14125;SDS011;7141;49.484;11.242;2022-07-29T10:05:26;4.00;;;3.45;;
14125;SDS011;7141;49.484;11.242;2022-07-29T10:07:54;5.53;;;3.53;;
14125;SDS011;7141;49.484;11.242;2022-07-29T10:10:24;5.15;;;3.10;;
14125;SDS011;7141;49.484;11.242;2022-07-29T10:12:51;5.10;;;3.58;;
14125;SDS011;7141;49.484;11.242;2022-07-29T10:15:18;4.68;;;2.97;;
14125;SDS011;7141;49.484;11.242;2022-07-29T10:17:44;3.72;;;3.08;;
14125;SDS011;7141;49.484;11.242;2022-07-29T10:20:10;3.75;;;3.30;;
14125;SDS011;7141;49.484;11.242;2022-07-29T10:22:36;6.05;;;3.47;;
14125;SDS011;7141;49.484;11.242;2022-07-29T10:25:02;4.68;;;3.03;;
14125;SDS011;7141;49.484;11.242;2022-07-29T10:27:28;7.80;;;3.15;;
14125;SDS011;7141;49.484;11.242;2022-07-29T10:29:54;6.43;;;3.15;;
14125;SDS011;7141;49.484;11.242;2022-07-29T10:43:05;4.68;;;3.50;;
14125;SDS011;7141;49.484;11.242;2022-07-29T10:45:33;5.72;;;3.63;;
14125;SDS011;7141;49.484;11.242;2022-07-29T10:48:03;8.15;;;3.72;;
14125;SDS011;7141;49.484;11.242;2022-07-29T10:53:17;8.57;;;3.83;;
14125;SDS011;7141;49.484;11.242;2022-07-29T10:55:43;5.93;;;3.70;;
14125;SDS011;7141;49.484;11.242;2022-07-29T11:00:38;5.28;;;3.50;;
14125;SDS011;7141;49.484;11.242;2022-07-29T11:03:04;7.07;;;3.97;;
14125;SDS011;7141;49.484;11.242;2022-07-29T11:05:30;8.93;;;4.30;;
14125;SDS011;7141;49.484;11.242;2022-07-29T11:08:17;5.68;;;4.15;;
14125;SDS011;7141;49.484;11.242;2022-07-29T11:10:49;6.57;;;3.97;;
14125;SDS011;7141;49.484;11.242;2022-07-29T11:13:44;4.93;;;4.05;;
14125;SDS011;7141;49.484;11.242;2022-07-29T11:16:18;5.65;;;4.05;;
14125;SDS011;7141;49.484;11.242;2022-07-29T11:21:34;6.95;;;3.80;;
14125;SDS011;7141;49.484;11.242;2022-07-29T11:26:42;8.25;;;4.20;;
14125;SDS011;7141;49.484;11.242;2022-07-29T11:29:19;7.55;;;4.15;;
14125;SDS011;7141;49.484;11.242;2022-07-29T11:31:47;7.07;;;4.03;;
14125;SDS011;7141;49.484;11.242;2022-07-29T11:39:28;7.43;;;4.90;;
14125;SDS011;7141;49.484;11.242;2022-07-29T11:42:11;7.85;;;4.45;;
14125;SDS011;7141;49.484;11.242;2022-07-29T11:47:26;6.18;;;4.25;;
14125;SDS011;7141;49.484;11.242;2022-07-29T11:49:52;4.90;;;4.30;;
14125;SDS011;7141;49.484;11.242;2022-07-29T11:52:19;5.32;;;4.57;;
14125;SDS011;7141;49.484;11.242;2022-07-29T11:54:47;6.30;;;4.82;;
14125;SDS011;7141;49.484;11.242;2022-07-29T11:57:14;5.15;;;4.50;;
14125;SDS011;7141;49.484;11.242;2022-07-29T11:59:42;6.53;;;4.30;;
14125;SDS011;7141;49.484;11.242;2022-07-29T12:02:08;5.55;;;4.43;;
14125;SDS011;7141;49.484;11.242;2022-07-29T12:04:47;9.38;;;4.82;;
14125;SDS011;7141;49.484;11.242;2022-07-29T12:07:14;4.82;;;4.43;;
14125;SDS011;7141;49.484;11.242;2022-07-29T12:09:40;5.63;;;4.72;;
14125;SDS011;7141;49.484;11.242;2022-07-29T12:12:06;6.82;;;4.50;;
14125;SDS011;7141;49.484;11.242;2022-07-29T12:14:32;7.50;;;4.40;;
14125;SDS011;7141;49.484;11.242;2022-07-29T12:16:59;7.00;;;4.70;;
14125;SDS011;7141;49.484;11.242;2022-07-29T12:19:26;4.90;;;4.22;;
14125;SDS011;7141;49.484;11.242;2022-07-29T12:21:53;5.60;;;4.35;;
14125;SDS011;7141;49.484;11.242;2022-07-29T12:24:20;5.90;;;4.25;;
14125;SDS011;7141;49.484;11.242;2022-07-29T12:26:59;7.25;;;4.75;;
14125;SDS011;7141;49.484;11.242;2022-07-29T12:29:25;5.13;;;4.25;;
14125;SDS011;7141;49.484;11.242;2022-07-29T12:31:52;6.75;;;4.35;;
14125;SDS011;7141;49.484;11.242;2022-07-29T12:34:19;6.13;;;4.30;;
14125;SDS011;7141;49.484;11.242;2022-07-29T12:36:45;5.38;;;4.13;;
14125;SDS011;7141;49.484;11.242;2022-07-29T12:39:11;6.80;;;3.78;;
14125;SDS011;7141;49.484;11.242;2022-07-29T12:41:37;5.00;;;4.10;;
14125;SDS011;7141;49.484;11.242;2022-07-29T12:44:04;5.88;;;4.15;;
14125;SDS011;7141;49.484;11.242;2022-07-29T12:46:30;4.57;;;4.00;;
14125;SDS011;7141;49.484;11.242;2022-07-29T12:48:56;5.97;;;3.80;;
14125;SDS011;7141;49.484;11.242;2022-07-29T12:51:36;6.03;;;3.70;;
14125;SDS011;7141;49.484;11.242;2022-07-29T12:56:28;4.07;;;3.70;;
14125;SDS011;7141;49.484;11.242;2022-07-29T12:58:54;5.30;;;3.17;;
14125;SDS011;7141;49.484;11.242;2022-07-29T13:01:20;3.90;;;3.17;;
14125;SDS011;7141;49.484;11.242;2022-07-29T13:06:29;3.53;;;2.90;;
14125;SDS011;7141;49.484;11.242;2022-07-29T13:08:58;3.30;;;3.00;;
14125;SDS011;7141;49.484;11.242;2022-07-29T13:11:28;5.07;;;3.40;;
14125;SDS011;7141;49.484;11.242;2022-07-29T13:13:54;3.55;;;3.25;;
14125;SDS011;7141;49.484;11.242;2022-07-29T13:16:20;3.40;;;3.05;;
14125;SDS011;7141;49.484;11.242;2022-07-29T13:18:46;4.90;;;3.20;;
14125;SDS011;7141;49.484;11.242;2022-07-29T13:21:13;7.00;;;3.20;;
14125;SDS011;7141;49.484;11.242;2022-07-29T13:23:40;4.03;;;3.03;;
14125;SDS011;7141;49.484;11.242;2022-07-29T13:26:07;4.15;;;2.83;;
14125;SDS011;7141;49.484;11.242;2022-07-29T13:28:33;3.72;;;3.13;;
14125;SDS011;7141;49.484;11.242;2022-07-29T13:30:59;4.93;;;3.13;;
14125;SDS011;7141;49.484;11.242;2022-07-29T13:33:26;4.03;;;2.88;;
14125;SDS011;7141;49.484;11.242;2022-07-29T13:35:52;3.72;;;2.70;;
14125;SDS011;7141;49.484;11.242;2022-07-29T13:38:18;4.13;;;2.58;;
14125;SDS011;7141;49.484;11.242;2022-07-29T13:40:44;7.95;;;4.68;;
14125;SDS011;7141;49.484;11.242;2022-07-29T13:43:10;2.92;;;2.20;;
14125;SDS011;7141;49.484;11.242;2022-07-29T13:45:36;2.50;;;2.30;;
14125;SDS011;7141;49.484;11.242;2022-07-29T13:48:03;3.03;;;2.00;;
14125;SDS011;7141;49.484;11.242;2022-07-29T13:50:29;3.35;;;2.50;;
14125;SDS011;7141;49.484;11.242;2022-07-29T13:52:55;4.38;;;2.80;;
14125;SDS011;7141;49.484;11.242;2022-07-29T13:55:21;4.68;;;2.58;;
14125;SDS011;7141;49.484;11.242;2022-07-29T13:57:47;3.97;;;2.50;;
14125;SDS011;7141;49.484;11.242;2022-07-29T14:00:13;5.07;;;2.78;;
14125;SDS011;7141;49.484;11.242;2022-07-29T14:02:40;4.00;;;2.75;;
14125;SDS011;7141;49.484;11.242;2022-07-29T14:05:06;3.67;;;2.75;;
14125;SDS011;7141;49.484;11.242;2022-07-29T14:07:32;5.97;;;3.10;;
14125;SDS011;7141;49.484;11.242;2022-07-29T14:09:58;3.87;;;2.93;;
14125;SDS011;7141;49.484;11.242;2022-07-29T14:12:24;3.17;;;2.73;;
14125;SDS011;7141;49.484;11.242;2022-07-29T14:14:50;6.23;;;2.93;;
14125;SDS011;7141;49.484;11.242;2022-07-29T14:17:16;3.50;;;2.80;;
14125;SDS011;7141;49.484;11.242;2022-07-29T14:19:42;5.70;;;3.57;;
14125;SDS011;7141;49.484;11.242;2022-07-29T14:22:08;5.03;;;3.60;;
14125;SDS011;7141;49.484;11.242;2022-07-29T14:24:35;5.87;;;3.03;;
14125;SDS011;7141;49.484;11.242;2022-07-29T14:27:01;3.67;;;2.93;;
14125;SDS011;7141;49.484;11.242;2022-07-29T14:29:27;4.17;;;3.13;;
14125;SDS011;7141;49.484;11.242;2022-07-29T14:31:53;4.97;;;3.40;;
14125;SDS011;7141;49.484;11.242;2022-07-29T14:34:20;3.30;;;3.00;;
14125;SDS011;7141;49.484;11.242;2022-07-29T14:36:46;3.37;;;2.93;;
14125;SDS011;7141;49.484;11.242;2022-07-29T14:39:11;3.60;;;2.87;;
14125;SDS011;7141;49.484;11.242;2022-07-29T14:41:38;7.13;;;3.50;;
14125;SDS011;7141;49.484;11.242;2022-07-29T14:44:04;4.03;;;3.40;;
14125;SDS011;7141;49.484;11.242;2022-07-29T14:46:30;5.53;;;3.57;;
14125;SDS011;7141;49.484;11.242;2022-07-29T14:48:56;4.03;;;3.47;;
14125;SDS011;7141;49.484;11.242;2022-07-29T14:51:22;6.87;;;3.40;;
14125;SDS011;7141;49.484;11.242;2022-07-29T14:53:48;7.87;;;4.43;;
14125;SDS011;7141;49.484;11.242;2022-07-29T14:56:14;5.77;;;3.50;;
14125;SDS011;7141;49.484;11.242;2022-07-29T14:58:40;5.00;;;3.77;;
14125;SDS011;7141;49.484;11.242;2022-07-29T15:01:06;4.60;;;3.70;;
14125;SDS011;7141;49.484;11.242;2022-07-29T15:03:32;5.60;;;3.60;;
14125;SDS011;7141;49.484;11.242;2022-07-29T15:05:58;5.67;;;3.97;;
14125;SDS011;7141;49.484;11.242;2022-07-29T15:08:24;7.00;;;4.40;;
14125;SDS011;7141;49.484;11.242;2022-07-29T15:10:52;10.10;;;4.93;;
14125;SDS011;7141;49.484;11.242;2022-07-29T15:13:18;6.90;;;4.90;;
14125;SDS011;7141;49.484;11.242;2022-07-29T15:15:44;9.27;;;4.37;;
14125;SDS011;7141;49.484;11.242;2022-07-29T15:18:10;6.90;;;4.47;;
14125;SDS011;7141;49.484;11.242;2022-07-29T15:20:36;7.83;;;4.50;;
14125;SDS011;7141;49.484;11.242;2022-07-29T15:23:02;6.97;;;3.80;;
14125;SDS011;7141;49.484;11.242;2022-07-29T15:25:28;5.83;;;3.83;;
14125;SDS011;7141;49.484;11.242;2022-07-29T15:27:58;7.30;;;4.30;;
14125;SDS011;7141;49.484;11.242;2022-07-29T15:30:31;7.30;;;4.73;;
14125;SDS011;7141;49.484;11.242;2022-07-29T15:32:58;4.63;;;4.13;;
14125;SDS011;7141;49.484;11.242;2022-07-29T15:35:24;6.10;;;4.43;;
14125;SDS011;7141;49.484;11.242;2022-07-29T15:37:50;7.67;;;4.10;;